createdAt,value
2022-09-26T00:00:32.440Z,-23399.78
2022-09-26T00:03:19.696Z,-23397.59
2022-09-26T00:06:08.360Z,-23396.63
2022-09-26T00:08:55.649Z,-23400.03
2022-09-26T00:11:44.552Z,-23395.16
2022-09-26T00:14:31.483Z,-23393.47
2022-09-26T00:17:18.366Z,-23398.56
2022-09-26T00:20:05.790Z,-23404.38
2022-09-26T00:22:52.649Z,-23404.38
2022-09-26T00:25:51.406Z,-23401.22
2022-09-26T00:28:38.927Z,-23391.78
2022-09-26T00:31:30.704Z,-23402.44
2022-09-26T00:34:19.545Z,-23402.69
2022-09-26T00:37:06.524Z,-23412.13
2022-09-26T00:39:53.443Z,-23414.06
2022-09-26T00:42:40.314Z,-23419.16
2022-09-26T00:45:30.530Z,-23405.84
2022-09-26T00:48:19.053Z,-23399.78
2022-09-26T00:51:06.673Z,-23404.38
2022-09-26T00:53:54.211Z,-23407.78
2022-09-26T00:56:43.652Z,-23400.50
2022-09-26T00:59:37.177Z,-23396.38
2022-09-26T01:02:27.436Z,-23389.34
2022-09-26T01:05:18.660Z,-23383.53
2022-09-26T01:08:06.239Z,-23389.34
2022-09-26T01:10:53.489Z,-23390.81
2022-09-26T01:13:40.592Z,-23388.88
2022-09-26T01:16:27.905Z,-23390.31
2022-09-26T01:19:39.190Z,-23380.88
2022-09-26T01:22:54.010Z,-23376.03
2022-09-26T01:26:11.779Z,-23384.50
2022-09-26T01:29:15.795Z,-23380.41
2022-09-26T01:32:43.262Z,-23391.28
2022-09-26T01:35:51.409Z,-23400.25
2022-09-26T01:39:23.633Z,-23393.25
2022-09-26T01:42:45.964Z,-23387.91
2022-09-26T01:45:59.132Z,-23378.22
2022-09-26T01:48:52.033Z,-23368.28
2022-09-26T01:52:05.841Z,-23361.50
2022-09-26T01:55:07.529Z,-23365.13
2022-09-26T01:58:01.997Z,-23363.44
2022-09-26T02:00:50.077Z,-23357.63
2022-09-26T02:03:41.899Z,-23357.38
2022-09-26T02:06:35.786Z,-23355.91
2022-09-26T02:09:40.492Z,-23361.50
2022-09-26T02:12:32.961Z,-23368.53
2022-09-26T02:15:21.785Z,-23364.16
2022-09-26T02:18:17.363Z,-23354.72
2022-09-26T02:21:13.081Z,-23358.34
2022-09-26T02:23:59.931Z,-23355.44
2022-09-26T02:26:46.793Z,-23356.91
2022-09-26T02:29:34.292Z,-23359.06
2022-09-26T02:32:26.042Z,-23371.91
2022-09-26T02:35:32.007Z,-23362.22
2022-09-26T02:38:18.823Z,-23351.09
2022-09-26T02:41:47.591Z,-23353.50
2022-09-26T02:44:52.305Z,-23361.97
2022-09-26T02:48:17.669Z,-23366.34
2022-09-26T02:51:32.130Z,-23355.44
2022-09-26T02:54:22.803Z,-23361.97
2022-09-26T02:57:51.495Z,-23361.72
2022-09-26T03:00:53.389Z,-23355.44
2022-09-26T03:03:43.263Z,-23361.97
2022-09-26T03:06:35.905Z,-23362.47
2022-09-26T03:09:24.849Z,-23355.91
2022-09-26T03:12:12.341Z,-23345.03
2022-09-26T03:15:00.592Z,-23362.47
2022-09-26T03:17:53.560Z,-23363.19
2022-09-26T03:20:41.559Z,-23363.69
2022-09-26T03:23:29.507Z,-23354.22
2022-09-26T03:26:20.134Z,-23356.41
2022-09-26T03:29:07.229Z,-23352.06
2022-09-26T03:31:54.115Z,-23345.28
2022-09-26T03:34:41.014Z,-23348.91
2022-09-26T03:37:27.830Z,-23354.97
2022-09-26T03:40:15.782Z,-23358.81
2022-09-26T03:43:02.730Z,-23366.59
2022-09-26T03:45:50.688Z,-23355.44
2022-09-26T03:48:38.358Z,-23353.75
2022-09-26T03:51:25.233Z,-23351.56
2022-09-26T03:54:13.197Z,-23359.81
2022-09-26T03:57:00.073Z,-23369.72
2022-09-26T03:59:46.968Z,-23357.88
2022-09-26T04:02:34.514Z,-23357.88
2022-09-26T04:05:21.733Z,-23352.28
2022-09-26T04:08:09.292Z,-23334.13
2022-09-26T04:11:07.911Z,-23327.34
2022-09-26T04:13:54.814Z,-23332.19
2022-09-26T04:16:41.780Z,-23323.72
2022-09-26T04:19:28.701Z,-23322.25
2022-09-26T04:22:15.726Z,-23334.59
2022-09-26T04:25:02.631Z,-23341.16
2022-09-26T04:27:49.582Z,-23346.47
2022-09-26T04:30:37.238Z,-23346.00
2022-09-26T04:33:24.559Z,-23338.47
2022-09-26T04:36:13.588Z,-23333.41
2022-09-26T04:39:00.747Z,-23342.38
2022-09-26T04:41:47.681Z,-23340.91
2022-09-26T04:44:34.538Z,-23326.38
2022-09-26T04:47:21.384Z,-23332.91
2022-09-26T04:50:08.413Z,-23335.81
2022-09-26T04:52:55.277Z,-23338.72
2022-09-26T04:55:49.014Z,-23335.34
2022-09-26T04:58:38.057Z,-23332.44
2022-09-26T05:01:25.762Z,-23338.97
2022-09-26T05:04:13.508Z,-23341.38
2022-09-26T05:07:00.625Z,-23336.53
2022-09-26T05:09:47.964Z,-23334.13
2022-09-26T05:12:34.812Z,-23331.69
2022-09-26T05:15:21.681Z,-23330.72
2022-09-26T05:18:09.558Z,-23322.25
2022-09-26T05:20:57.532Z,-23318.13
2022-09-26T05:24:02.772Z,-23321.53
2022-09-26T05:26:52.434Z,-23320.31
2022-09-26T05:29:39.795Z,-23330.25
2022-09-26T05:32:29.125Z,-23324.69
2022-09-26T05:35:16.235Z,-23334.59
2022-09-26T05:38:04.829Z,-23326.13
2022-09-26T05:40:57.097Z,-23333.41
2022-09-26T05:43:44.105Z,-23322.50
2022-09-26T05:46:32.205Z,-23321.53
2022-09-26T05:49:19.138Z,-23321.75
2022-09-26T05:52:06.048Z,-23324.44
2022-09-26T05:54:52.865Z,-23308.19
2022-09-26T05:57:39.696Z,-23318.13
2022-09-26T06:00:27.665Z,-23322.97
2022-09-26T06:03:15.601Z,-23324.44
2022-09-26T06:06:03.619Z,-23320.06
2022-09-26T06:08:50.445Z,-23330.47
2022-09-26T06:11:37.265Z,-23325.41
2022-09-26T06:14:26.241Z,-23326.13
2022-09-26T06:17:13.508Z,-23305.06
2022-09-26T06:20:00.459Z,-23298.75
2022-09-26T06:22:47.289Z,-23310.38
2022-09-26T06:25:34.152Z,-23324.19
2022-09-26T06:28:21.060Z,-23316.44
2022-09-26T06:31:16.687Z,-23317.88
2022-09-26T06:34:05.415Z,-23318.38
2022-09-26T06:36:52.261Z,-23322.50
2022-09-26T06:39:39.080Z,-23332.66
2022-09-26T06:42:26.109Z,-23326.84
2022-09-26T06:45:12.947Z,-23322.97
2022-09-26T06:48:03.459Z,-23328.31
2022-09-26T06:50:54.537Z,-23328.31
2022-09-26T06:53:42.935Z,-23337.75
2022-09-26T06:56:29.754Z,-23329.28
2022-09-26T06:59:16.958Z,-23328.78
2022-09-26T07:02:04.243Z,-23333.63
2022-09-26T07:04:52.345Z,-23348.19
2022-09-26T07:07:45.528Z,-23351.09
2022-09-26T07:10:34.723Z,-23361.25
2022-09-26T07:13:21.837Z,-23365.59
2022-09-26T07:16:08.755Z,-23377.25
2022-09-26T07:18:55.935Z,-23373.84
2022-09-26T07:21:42.863Z,-23380.16
2022-09-26T07:24:29.705Z,-23370.69
2022-09-26T07:27:17.966Z,-23377.25
2022-09-26T07:30:06.687Z,-23373.13
2022-09-26T07:32:58.529Z,-23367.56
2022-09-26T07:35:46.272Z,-23374.81
2022-09-26T07:38:33.135Z,-23369.50
2022-09-26T07:41:19.985Z,-23374.09
2022-09-26T07:47:32.394Z,-23367.56
2022-09-26T07:50:19.976Z,-23375.31
2022-09-26T07:53:06.817Z,-23374.34
2022-09-26T07:56:06.157Z,-23369.50
2022-09-26T07:58:54.473Z,-23367.56
2022-09-26T08:01:41.348Z,-23363.91
2022-09-26T08:04:28.811Z,-23363.44
2022-09-26T08:07:16.087Z,-23361.25
2022-09-26T08:10:05.593Z,-23369.25
2022-09-26T08:12:52.404Z,-23362.69
2022-09-26T08:15:39.320Z,-23368.28
2022-09-26T08:18:26.155Z,-23372.41
2022-09-26T08:21:13.056Z,-23386.44
2022-09-26T08:24:00.106Z,-23399.03
2022-09-26T08:26:46.954Z,-23406.56
2022-09-26T08:29:34.226Z,-23403.16
2022-09-26T08:32:21.265Z,-23401.47
2022-09-26T08:35:12.140Z,-23407.28
2022-09-26T08:38:03.369Z,-23414.06
2022-09-26T08:40:56.395Z,-23405.34
2022-09-26T08:44:10.356Z,-23411.16
2022-09-26T08:47:06.525Z,-23414.31
2022-09-26T08:50:02.222Z,-23416.00
2022-09-26T08:53:24.781Z,-23420.13
2022-09-26T08:56:26.082Z,-23414.06
2022-09-26T08:59:22.961Z,-23421.34
2022-09-26T09:02:38.464Z,-23425.69
2022-09-26T09:05:31.459Z,-23438.78
2022-09-26T09:08:41.065Z,-23440.97
2022-09-26T09:11:43.180Z,-23451.41
2022-09-26T09:15:20.642Z,-23439.75
2022-09-26T09:18:13.899Z,-23449.94
2022-09-26T09:21:41.427Z,-23464.00
2022-09-26T09:25:00.988Z,-23459.66
2022-09-26T09:28:08.551Z,-23451.16
2022-09-26T09:30:59.431Z,-23452.13
2022-09-26T09:33:50.183Z,-23458.66
2022-09-26T09:36:50.969Z,-23454.78
2022-09-26T09:39:41.572Z,-23466.44
2022-09-26T09:42:39.561Z,-23478.78
2022-09-26T09:45:36.547Z,-23489.69
2022-09-26T09:48:27.145Z,-23493.09
2022-09-26T09:51:42.100Z,-23486.28
2022-09-26T09:54:56.160Z,-23485.81
2022-09-26T09:57:50.396Z,-23486.06
2022-09-26T10:00:51.210Z,-23497.69
2022-09-26T10:04:21.036Z,-23492.59
2022-09-26T10:07:08.152Z,-23488.47
2022-09-26T10:09:55.044Z,-23512.72
2022-09-26T10:12:43.604Z,-23496.97
2022-09-26T10:15:31.310Z,-23500.13
2022-09-26T10:18:26.006Z,-23514.41
2022-09-26T10:21:19.016Z,-23497.94
2022-09-26T10:24:07.798Z,-23501.31
2022-09-26T10:26:54.724Z,-23503.75
2022-09-26T10:29:41.636Z,-23497.47
2022-09-26T10:32:29.633Z,-23495.75
2022-09-26T10:35:24.155Z,-23517.34
2022-09-26T10:38:27.476Z,-23535.75
2022-09-26T10:41:24.023Z,-23532.38
2022-09-26T10:44:30.509Z,-23536.25
2022-09-26T10:47:26.332Z,-23560.97
2022-09-26T10:50:27.892Z,-23554.19
2022-09-26T10:53:15.596Z,-23565.34
2022-09-26T10:56:10.289Z,-23585.72
2022-09-26T10:59:10.193Z,-23594.44
2022-09-26T11:01:59.422Z,-23580.13
2022-09-26T11:05:05.480Z,-23586.69
2022-09-26T11:07:52.736Z,-23550.06
2022-09-26T11:10:42.005Z,-23543.75
2022-09-26T11:13:32.284Z,-23541.09
2022-09-26T11:16:20.560Z,-23543.03
2022-09-26T11:19:19.825Z,-23554.19
2022-09-26T11:22:32.310Z,-23542.53
2022-09-26T11:25:26.946Z,-23546.44
2022-09-26T11:28:24.888Z,-23557.34
2022-09-26T11:31:30.731Z,-23544.72
2022-09-26T11:34:26.325Z,-23548.84
2022-09-26T11:37:30.068Z,-23542.06
2022-09-26T11:40:31.906Z,-23536.72
2022-09-26T11:43:37.504Z,-23536.25
2022-09-26T11:47:01.422Z,-23540.13
2022-09-26T11:50:24.623Z,-23540.59
2022-09-26T11:53:31.922Z,-23547.41
2022-09-26T11:56:25.617Z,-23562.91
2022-09-26T11:59:37.874Z,-23567.75
2022-09-26T12:02:47.441Z,-23577.94
2022-09-26T12:05:54.245Z,-23584.97
2022-09-26T12:09:04.909Z,-23604.88
2022-09-26T12:12:16.885Z,-23598.31
2022-09-26T12:15:25.677Z,-23606.09
2022-09-26T12:18:25.381Z,-23615.78
2022-09-26T12:21:21.173Z,-23620.41
2022-09-26T12:24:34.053Z,-23622.34
2022-09-26T12:27:44.511Z,-23617.25
2022-09-26T12:30:43.910Z,-23607.31
2022-09-26T12:33:49.527Z,-23589.09
2022-09-26T12:36:48.471Z,-23584.50
2022-09-26T12:40:01.691Z,-23588.38
2022-09-26T12:42:59.561Z,-23599.31
2022-09-26T12:46:10.850Z,-23627.19
2022-09-26T12:49:10.020Z,-23642.00
2022-09-26T12:52:27.500Z,-23609.00
2022-09-26T12:55:37.662Z,-23605.13
2022-09-26T12:58:46.666Z,-23620.88
2022-09-26T13:02:12.090Z,-23598.09
2022-09-26T13:05:18.808Z,-23611.19
2022-09-26T13:08:15.623Z,-23619.19
2022-09-26T13:11:15.545Z,-23613.38
2022-09-26T13:14:21.081Z,-23609.97
2022-09-26T13:17:25.211Z,-23600.03
2022-09-26T13:20:31.661Z,-23608.75
2022-09-26T13:23:37.781Z,-23618.94
2022-09-26T13:26:37.158Z,-23610.69
2022-09-26T13:29:29.055Z,-23600.25
2022-09-26T13:32:27.210Z,-23605.13
2022-09-26T13:35:24.113Z,-23609.47
2022-09-26T13:38:20.186Z,-23614.34
2022-09-26T13:41:23.583Z,-23607.06
2022-09-26T13:44:22.957Z,-23618.22
2022-09-26T13:47:37.880Z,-23626.94
2022-09-26T13:50:34.576Z,-23615.06
2022-09-26T13:54:03.004Z,-23622.59
2022-09-26T13:56:50.760Z,-23635.19
2022-09-26T13:59:51.909Z,-23632.03
2022-09-26T14:02:39.563Z,-23623.56
2022-09-26T14:05:28.576Z,-23611.19
2022-09-26T14:08:43.068Z,-23614.34
2022-09-26T14:11:51.595Z,-23634.47
2022-09-26T14:14:43.580Z,-23644.41
2022-09-26T14:17:50.662Z,-23663.81
2022-09-26T14:20:56.848Z,-23645.38
2022-09-26T14:23:45.211Z,-23643.91
2022-09-26T14:26:42.893Z,-23632.03
2022-09-26T14:29:29.739Z,-23630.09
2022-09-26T14:32:34.981Z,-23645.63
2022-09-26T14:35:48.420Z,-23672.56
2022-09-26T14:38:40.223Z,-23673.28
2022-09-26T14:41:30.364Z,-23657.53
2022-09-26T14:44:20.653Z,-23632.78
2022-09-26T14:47:14.884Z,-23628.88
2022-09-26T14:50:06.733Z,-23625.50
2022-09-26T14:52:57.530Z,-23632.03
2022-09-26T14:56:32.488Z,-23615.31
2022-09-26T14:59:19.305Z,-23607.53
2022-09-26T15:02:15.383Z,-23605.59
2022-09-26T15:05:08.599Z,-23599.78
2022-09-26T15:07:55.875Z,-23598.31
2022-09-26T15:10:42.833Z,-23596.63
2022-09-26T15:13:42.508Z,-23593.00
2022-09-26T15:16:37.553Z,-23602.69
2022-09-26T15:19:35.782Z,-23599.31
2022-09-26T15:22:25.680Z,-23605.13
2022-09-26T15:25:30.688Z,-23609.47
2022-09-26T15:28:17.634Z,-23618.69
2022-09-26T15:31:41.376Z,-23631.06
2022-09-26T15:34:39.824Z,-23631.78
2022-09-26T15:37:30.177Z,-23616.28
2022-09-26T15:40:19.738Z,-23621.38
2022-09-26T15:43:20.460Z,-23625.00
2022-09-26T15:46:24.121Z,-23621.13
2022-09-26T15:49:20.198Z,-23616.75
2022-09-26T15:52:07.533Z,-23614.56
2022-09-26T15:54:54.689Z,-23617.25
2022-09-26T15:57:42.736Z,-23612.63
2022-09-26T16:00:37.633Z,-23603.19
2022-09-26T16:03:27.517Z,-23596.38
2022-09-26T16:06:37.519Z,-23596.38
2022-09-26T16:09:40.108Z,-23598.31
2022-09-26T16:12:31.773Z,-23586.69
2022-09-26T16:15:21.868Z,-23587.91
2022-09-26T16:18:25.270Z,-23588.63
2022-09-26T16:21:19.871Z,-23590.09
2022-09-26T16:24:30.445Z,-23591.53
2022-09-26T16:27:33.221Z,-23597.13
2022-09-26T16:30:27.167Z,-23595.41
2022-09-26T16:33:26.347Z,-23590.09
2022-09-26T16:36:18.734Z,-23586.44
2022-09-26T16:39:11.969Z,-23584.50
2022-09-26T16:42:07.384Z,-23579.41
2022-09-26T16:44:55.494Z,-23575.03
2022-09-26T16:47:44.627Z,-23575.53
2022-09-26T16:50:33.983Z,-23576.50
2022-09-26T16:53:21.488Z,-23571.16
2022-09-26T16:56:11.925Z,-23571.66
2022-09-26T16:59:04.124Z,-23568.75
2022-09-26T17:01:54.878Z,-23571.41
2022-09-26T17:04:43.364Z,-23569.22
2022-09-26T17:07:30.232Z,-23567.28
2022-09-26T17:10:18.459Z,-23566.06
2022-09-26T17:13:13.913Z,-23567.03
2022-09-26T17:16:03.511Z,-23565.59
2022-09-26T17:18:51.126Z,-23561.22
2022-09-26T17:21:38.784Z,-23553.69
2022-09-26T17:24:28.147Z,-23546.91
2022-09-26T17:27:16.566Z,-23542.31
2022-09-26T17:30:08.090Z,-23538.66
2022-09-26T17:32:55.142Z,-23537.47
2022-09-26T17:35:42.307Z,-23537.22
2022-09-26T17:38:29.276Z,-23533.34
2022-09-26T17:41:16.534Z,-23532.84
2022-09-26T17:44:03.557Z,-23530.44
2022-09-26T17:46:54.108Z,-23532.59
2022-09-26T17:49:42.289Z,-23527.53
2022-09-26T17:52:31.578Z,-23529.47
2022-09-26T17:55:20.222Z,-23528.47
2022-09-26T17:58:10.277Z,-23528.72
2022-09-26T18:00:57.326Z,-23524.34
2022-09-26T18:03:45.047Z,-23523.16
2022-09-26T18:06:32.886Z,-23523.16
2022-09-26T18:09:21.000Z,-23521.22
2022-09-26T18:12:13.711Z,-23521.69
2022-09-26T18:15:03.799Z,-23524.34
2022-09-26T18:17:51.594Z,-23519.25
2022-09-26T18:20:39.415Z,-23520.00
2022-09-26T18:23:29.263Z,-23525.09
2022-09-26T18:26:28.930Z,-23524.59
2022-09-26T18:29:22.645Z,-23525.09
2022-09-26T18:32:19.731Z,-23521.44
2022-09-26T18:35:15.986Z,-23518.31
2022-09-26T18:38:03.461Z,-23519.75
2022-09-26T18:40:55.326Z,-23520.00
2022-09-26T18:43:42.946Z,-23523.88
2022-09-26T18:46:30.516Z,-23523.16
2022-09-26T18:49:17.864Z,-23519.50
2022-09-26T18:52:06.329Z,-23519.03
2022-09-26T18:55:13.178Z,-23520.25
2022-09-26T18:58:18.384Z,-23517.34
2022-09-26T19:01:11.753Z,-23520.72
2022-09-26T19:04:01.860Z,-23517.81
2022-09-26T19:06:58.921Z,-23515.88
2022-09-26T19:09:46.042Z,-23517.81
2022-09-26T19:12:33.136Z,-23507.88
2022-09-26T19:15:19.971Z,-23507.63
2022-09-26T19:18:06.804Z,-23507.16
2022-09-26T19:20:54.163Z,-23505.22
2022-09-26T19:23:41.364Z,-23507.16
2022-09-26T19:26:38.959Z,-23502.78
2022-09-26T19:29:34.575Z,-23506.41
2022-09-26T19:32:31.097Z,-23502.78
2022-09-26T19:35:33.394Z,-23499.88
2022-09-26T19:38:23.548Z,-23502.78
2022-09-26T19:41:10.486Z,-23498.41
2022-09-26T19:43:57.431Z,-23502.31
2022-09-26T19:46:46.046Z,-23501.09
2022-09-26T19:49:33.057Z,-23507.38
2022-09-26T19:52:21.011Z,-23509.81
2022-09-26T19:55:28.745Z,-23508.59
2022-09-26T19:58:25.837Z,-23507.88
2022-09-26T20:01:18.451Z,-23504.72
2022-09-26T20:04:12.952Z,-23500.13
2022-09-26T20:06:59.910Z,-23503.28
2022-09-26T20:09:47.451Z,-23504.72
2022-09-26T20:12:34.285Z,-23502.06
2022-09-26T20:15:24.216Z,-23504.25
2022-09-26T20:18:24.180Z,-23505.22
2022-09-26T20:21:13.412Z,-23502.78
2022-09-26T20:24:00.724Z,-23503.50
2022-09-26T20:26:48.220Z,-23496.97
2022-09-26T20:29:55.352Z,-23497.47
2022-09-26T20:32:42.864Z,-23490.19
2022-09-26T20:35:35.618Z,-23482.91
2022-09-26T20:38:27.860Z,-23476.13
2022-09-26T20:41:17.453Z,-23475.63
2022-09-26T20:44:27.948Z,-23467.41
2022-09-26T20:47:19.673Z,-23461.56
2022-09-26T20:50:07.775Z,-23464.72
2022-09-26T20:52:54.631Z,-23456.72
2022-09-26T20:55:44.090Z,-23457.69
2022-09-26T20:58:31.266Z,-23452.63
2022-09-26T21:01:20.394Z,-23444.84
2022-09-26T21:04:13.729Z,-23443.63
2022-09-26T21:07:00.618Z,-23447.53
2022-09-26T21:09:47.530Z,-23448.25
2022-09-26T21:12:34.353Z,-23446.31
2022-09-26T21:15:27.025Z,-23449.94
2022-09-26T21:18:23.247Z,-23436.59
2022-09-26T21:21:21.040Z,-23442.44
2022-09-26T21:24:14.406Z,-23442.19
2022-09-26T21:27:01.375Z,-23436.38
2022-09-26T21:29:48.217Z,-23436.84
2022-09-26T21:32:35.103Z,-23434.44
2022-09-26T21:35:24.896Z,-23440.72
2022-09-26T21:38:11.802Z,-23438.06
2022-09-26T21:41:00.613Z,-23431.53
2022-09-26T21:43:55.254Z,-23423.78
2022-09-26T21:46:42.143Z,-23421.09
2022-09-26T21:49:30.225Z,-23423.78
2022-09-26T21:52:23.935Z,-23422.78
2022-09-26T21:55:22.341Z,-23415.28
2022-09-26T21:58:13.248Z,-23419.88
2022-09-26T22:01:00.244Z,-23420.63
2022-09-26T22:03:47.230Z,-23428.38
2022-09-26T22:06:34.731Z,-23429.81
2022-09-26T22:09:21.593Z,-23428.13
2022-09-26T22:12:08.473Z,-23422.56
2022-09-26T22:14:55.601Z,-23425.94
2022-09-26T22:17:42.934Z,-23419.16
2022-09-26T22:20:29.826Z,-23418.91
2022-09-26T22:23:16.754Z,-23422.56
2022-09-26T22:26:03.912Z,-23419.88
2022-09-26T22:28:50.879Z,-23421.81
2022-09-26T22:31:38.247Z,-23419.41
2022-09-26T22:34:26.233Z,-23424.00
2022-09-26T22:37:13.102Z,-23413.81
2022-09-26T22:40:00.022Z,-23418.91
2022-09-26T22:42:49.903Z,-23412.63
2022-09-26T22:45:37.248Z,-23416.50
2022-09-26T22:48:24.098Z,-23414.56
2022-09-26T22:51:11.073Z,-23416.97
2022-09-26T22:53:57.950Z,-23415.03
2022-09-26T22:56:44.788Z,-23415.53
2022-09-26T22:59:31.639Z,-23422.78
2022-09-26T23:02:18.509Z,-23425.47
2022-09-26T23:05:05.784Z,-23425.22
2022-09-26T23:07:54.652Z,-23416.97
2022-09-26T23:10:48.493Z,-23419.16
2022-09-26T23:13:35.847Z,-23415.78
2022-09-26T23:16:26.704Z,-23413.59
2022-09-26T23:19:13.597Z,-23413.34
2022-09-26T23:22:00.818Z,-23418.91
2022-09-26T23:24:47.685Z,-23414.31
2022-09-26T23:27:35.481Z,-23414.78
2022-09-26T23:30:23.131Z,-23417.94
2022-09-26T23:33:10.619Z,-23415.53
2022-09-26T23:35:58.253Z,-23423.28
2022-09-26T23:38:45.544Z,-23419.41
2022-09-26T23:41:32.394Z,-23427.88
2022-09-26T23:44:19.245Z,-23387.66
2022-09-26T23:47:06.140Z,-23375.78
2022-09-26T23:49:53.326Z,-23347.44
2022-09-26T23:52:40.210Z,-23337.03
2022-09-26T23:55:27.286Z,-23348.19
2022-09-26T23:58:14.764Z,-23324.69
